KGNV

Gainesville Regional Airport

Gainesville, Florida, USA
METAR KGNV 202014Z 29005KT 10SM -RA BKN046 BKN055 BKN110 28/24 A3008 RMK AO2 LTG DSNT ALQDS P0001 T02780239
Observed Flight Rules
Aug-20 @ 20:14 UTC (17 minutes ago) Visual Flight Rules
Wind Visibility Clouds Conditions
290° at 5 knots 10 miles
  • Broken at 4,600' AGL
  • Broken at 5,500' AGL
  • Broken at 11,000' AGL
  • Light Rain
Temperatures Readings Precipitation
Current 28°C / 82°F
Dewpoint 24°C / 75°F
Humidity 79%
Altimeter 30.08" Hg
Pressure 1019 hPa
Elevation 45
Current Rain 0.01
METAR KGNV 202014Z 29005KT 10SM -RA BKN046 BKN055 BKN110 28/24 A3008 RMK AO2 LTG DSNT ALQDS P0001 T02780239
Observed Flight Rules
Aug-20 @ 20:14 UTC
(17 minutes ago)
VFR
Wind Visibility
290° at 5 knots 10 miles
Clouds
  • Broken at 4,600' AGL
  • Broken at 5,500' AGL
  • Broken at 11,000' AGL
Conditions
  • Light Rain
Temperature Dewpoint
28°C / 82°F 24°C / 75°F
Humidity Altimeter Pressure
79% 30.08" Hg 1019 hPa
Current Rain
0.01